createdAt,value
2022-09-16T00:00:46.263Z,9.71
2022-09-16T00:03:13.688Z,9.74
2022-09-16T00:05:51.464Z,9.70
2022-09-16T00:08:19.229Z,9.76
2022-09-16T00:10:45.864Z,9.77
2022-09-16T00:13:13.114Z,9.81
2022-09-16T00:15:47.817Z,9.80
2022-09-16T00:18:14.754Z,9.86
2022-09-16T00:20:46.589Z,9.86
2022-09-16T00:23:13.253Z,9.88
2022-09-16T00:25:39.919Z,9.96
2022-09-16T00:28:06.550Z,10.03
2022-09-16T00:30:33.352Z,10.00
2022-09-16T00:33:02.304Z,9.99
2022-09-16T00:35:28.901Z,10.00
2022-09-16T00:37:55.579Z,10.00
2022-09-16T00:40:23.022Z,10.01
2022-09-16T00:42:49.676Z,9.98
2022-09-16T00:45:20.654Z,9.96
2022-09-16T00:47:52.867Z,9.89
2022-09-16T00:50:25.473Z,9.86
2022-09-16T00:52:52.712Z,9.89
2022-09-16T00:55:24.689Z,9.89
2022-09-16T00:57:52.131Z,9.93
2022-09-16T01:00:18.854Z,9.91
2022-09-16T01:02:46.268Z,9.83
2022-09-16T01:05:16.383Z,9.82
2022-09-16T01:07:48.662Z,9.77
2022-09-16T01:10:18.020Z,9.78
2022-09-16T01:12:46.649Z,9.80
2022-09-16T01:15:14.644Z,9.81
2022-09-16T01:18:19.684Z,9.77
2022-09-16T01:21:20.201Z,9.70
2022-09-16T01:23:57.068Z,9.71
2022-09-16T01:27:01.932Z,9.72
2022-09-16T01:29:59.413Z,9.69
2022-09-16T01:32:37.417Z,9.62
2022-09-16T01:35:09.725Z,9.68
2022-09-16T01:37:48.458Z,9.75
2022-09-16T01:40:21.178Z,9.74
2022-09-16T01:43:17.188Z,9.68
2022-09-16T01:45:55.146Z,9.71
2022-09-16T01:48:43.178Z,9.68
2022-09-16T01:51:22.415Z,9.69
2022-09-16T01:54:07.748Z,9.70
2022-09-16T01:56:53.121Z,9.69
2022-09-16T01:59:42.643Z,9.66
2022-09-16T02:02:11.640Z,9.66
2022-09-16T02:04:44.466Z,9.67
2022-09-16T02:07:15.654Z,9.60
2022-09-16T02:09:46.122Z,9.63
2022-09-16T02:12:21.016Z,9.69
2022-09-16T02:14:50.957Z,9.66
2022-09-16T02:17:20.752Z,9.65
2022-09-16T02:19:57.292Z,9.69
2022-09-16T02:22:33.157Z,9.69
2022-09-16T02:25:02.985Z,9.65
2022-09-16T02:27:30.833Z,9.66
2022-09-16T02:30:02.087Z,9.68
2022-09-16T02:32:34.143Z,9.76
2022-09-16T02:35:02.099Z,9.81
2022-09-16T02:37:37.425Z,9.84
2022-09-16T02:40:07.869Z,9.88
2022-09-16T02:42:34.785Z,9.94
2022-09-16T02:45:02.947Z,9.98
2022-09-16T02:47:59.059Z,9.94
2022-09-16T02:50:39.982Z,9.96
2022-09-16T02:53:38.140Z,9.89
2022-09-16T02:56:11.550Z,9.88
2022-09-16T02:58:38.426Z,9.91
2022-09-16T03:01:05.590Z,9.78
2022-09-16T03:03:32.231Z,9.81
2022-09-16T03:06:27.017Z,9.73
2022-09-16T03:08:56.515Z,9.67
2022-09-16T03:11:32.967Z,9.73
2022-09-16T03:14:05.401Z,9.81
2022-09-16T03:16:46.180Z,9.70
2022-09-16T03:19:48.110Z,9.74
2022-09-16T03:22:29.201Z,9.82
2022-09-16T03:25:10.520Z,9.80
2022-09-16T03:27:43.211Z,9.76
2022-09-16T03:30:11.355Z,9.82
2022-09-16T03:32:41.700Z,9.85
2022-09-16T03:35:15.363Z,9.81
2022-09-16T03:37:42.850Z,9.81
2022-09-16T03:40:13.622Z,9.76
2022-09-16T03:42:41.552Z,9.84
2022-09-16T03:45:10.715Z,9.84
2022-09-16T03:47:37.336Z,9.88
2022-09-16T03:50:04.702Z,9.82
2022-09-16T03:52:31.367Z,9.87
2022-09-16T03:54:58.025Z,9.81
2022-09-16T03:57:24.638Z,9.85
2022-09-16T03:59:51.177Z,9.77
2022-09-16T04:02:17.757Z,9.77
2022-09-16T04:04:51.676Z,9.80
2022-09-16T04:07:18.390Z,9.76
2022-09-16T04:09:44.928Z,9.79
2022-09-16T04:12:11.561Z,9.77
2022-09-16T04:14:38.199Z,9.79
2022-09-16T04:17:07.912Z,9.75
2022-09-16T04:19:34.521Z,9.76
2022-09-16T04:22:01.137Z,9.80
2022-09-16T04:24:27.760Z,9.76
2022-09-16T04:26:54.346Z,9.80
2022-09-16T04:29:28.396Z,9.77
2022-09-16T04:31:55.463Z,9.81
2022-09-16T04:34:22.121Z,9.82
2022-09-16T04:36:48.776Z,9.81
2022-09-16T04:39:15.485Z,9.78
2022-09-16T04:41:42.181Z,9.80
2022-09-16T04:44:10.410Z,9.70
2022-09-16T04:46:37.085Z,9.67
2022-09-16T04:49:03.934Z,9.67
2022-09-16T04:51:32.151Z,9.68
2022-09-16T04:54:02.660Z,9.75
2022-09-16T04:56:31.437Z,9.77
2022-09-16T04:59:03.224Z,9.79
2022-09-16T05:01:32.441Z,9.81
2022-09-16T05:04:01.300Z,9.83
2022-09-16T05:06:36.694Z,9.80
2022-09-16T05:09:03.740Z,9.89
2022-09-16T05:11:35.960Z,9.90
2022-09-16T05:14:04.185Z,9.84
2022-09-16T05:16:32.492Z,9.81
2022-09-16T05:19:00.505Z,9.77
2022-09-16T05:21:28.284Z,9.78
2022-09-16T05:23:59.314Z,9.88
2022-09-16T05:26:28.675Z,9.80
2022-09-16T05:28:55.329Z,9.79
2022-09-16T05:31:24.408Z,9.81
2022-09-16T05:34:11.123Z,9.79
2022-09-16T05:36:39.144Z,9.68
2022-09-16T05:39:24.617Z,9.59
2022-09-16T05:42:00.019Z,9.64
2022-09-16T05:44:27.828Z,9.58
2022-09-16T05:46:55.226Z,9.56
2022-09-16T05:49:23.482Z,9.79
2022-09-16T05:51:50.548Z,10.05
2022-09-16T05:54:20.549Z,10.10
2022-09-16T05:56:47.675Z,10.29
2022-09-16T05:59:14.919Z,10.63
2022-09-16T06:01:41.944Z,10.58
2022-09-16T06:04:12.085Z,10.41
2022-09-16T06:06:40.713Z,10.44
2022-09-16T06:09:12.836Z,10.40
2022-09-16T06:11:41.849Z,10.43
2022-09-16T06:14:09.098Z,10.73
2022-09-16T06:16:36.253Z,10.68
2022-09-16T06:19:05.552Z,10.88
2022-09-16T06:21:32.211Z,11.07
2022-09-16T06:23:58.819Z,11.21
2022-09-16T06:26:27.074Z,10.85
2022-09-16T06:28:55.693Z,10.74
2022-09-16T06:31:24.241Z,10.70
2022-09-16T06:33:51.214Z,10.66
2022-09-16T06:36:20.045Z,10.80
2022-09-16T06:38:47.290Z,10.83
2022-09-16T06:41:17.108Z,10.89
2022-09-16T06:43:44.417Z,10.85
2022-09-16T06:46:16.446Z,11.01
2022-09-16T06:48:50.514Z,11.16
2022-09-16T06:51:19.439Z,11.11
2022-09-16T06:53:46.858Z,11.01
2022-09-16T06:56:15.119Z,11.01
2022-09-16T06:58:42.979Z,11.05
2022-09-16T07:01:15.008Z,11.21
2022-09-16T07:03:46.785Z,11.37
2022-09-16T07:06:20.341Z,11.63
2022-09-16T07:08:47.618Z,11.32
2022-09-16T07:11:15.574Z,11.07
2022-09-16T07:13:43.331Z,10.91
2022-09-16T07:16:14.014Z,11.14
2022-09-16T07:18:41.858Z,11.32
2022-09-16T07:21:13.934Z,11.42
2022-09-16T07:23:41.257Z,11.38
2022-09-16T07:26:07.909Z,11.47
2022-09-16T07:28:35.360Z,11.72
2022-09-16T07:31:03.696Z,11.82
2022-09-16T07:33:33.243Z,11.84
2022-09-16T07:36:00.526Z,11.65
2022-09-16T07:38:27.665Z,11.78
2022-09-16T07:40:54.295Z,11.98
2022-09-16T07:43:21.159Z,11.91
2022-09-16T07:45:56.144Z,11.95
2022-09-16T07:48:23.113Z,12.15
2022-09-16T07:51:01.186Z,12.39
2022-09-16T07:53:29.719Z,12.57
2022-09-16T07:56:08.021Z,12.32
2022-09-16T07:58:34.778Z,12.57
2022-09-16T08:01:04.718Z,12.40
2022-09-16T08:03:36.261Z,12.20
2022-09-16T08:06:14.463Z,12.39
2022-09-16T08:08:41.803Z,12.41
2022-09-16T08:11:09.159Z,12.50
2022-09-16T08:13:38.995Z,12.66
2022-09-16T08:16:19.544Z,12.41
2022-09-16T08:18:47.640Z,12.31
2022-09-16T08:21:16.595Z,12.45
2022-09-16T08:23:43.640Z,12.72
2022-09-16T08:26:18.670Z,12.63
2022-09-16T08:29:04.914Z,12.73
2022-09-16T08:31:33.160Z,12.86
2022-09-16T08:34:06.025Z,12.86
2022-09-16T08:36:33.745Z,12.81
2022-09-16T08:39:00.676Z,12.83
2022-09-16T08:41:46.914Z,12.98
2022-09-16T08:44:28.606Z,13.17
2022-09-16T08:47:01.852Z,13.43
2022-09-16T08:49:45.579Z,13.73
2022-09-16T08:52:30.129Z,13.82
2022-09-16T08:55:18.796Z,13.79
2022-09-16T08:58:14.683Z,13.71
2022-09-16T09:00:44.223Z,13.36
2022-09-16T09:03:28.603Z,13.40
2022-09-16T09:05:56.980Z,13.27
2022-09-16T09:08:29.950Z,13.41
2022-09-16T09:11:07.912Z,13.56
2022-09-16T09:13:57.112Z,14.00
2022-09-16T09:16:42.694Z,13.88
2022-09-16T09:19:13.617Z,13.55
2022-09-16T09:22:04.525Z,13.83
2022-09-16T09:24:44.267Z,14.04
2022-09-16T09:27:42.544Z,13.65
2022-09-16T09:30:26.888Z,13.40
2022-09-16T09:33:44.500Z,13.60
2022-09-16T09:36:28.690Z,13.55
2022-09-16T09:39:14.143Z,13.82
2022-09-16T09:41:55.313Z,13.64
2022-09-16T09:44:46.614Z,13.62
2022-09-16T09:47:21.936Z,13.79
2022-09-16T09:49:56.588Z,13.86
2022-09-16T09:52:54.136Z,14.22
2022-09-16T09:55:24.343Z,14.21
2022-09-16T09:58:08.938Z,13.92
2022-09-16T10:00:35.590Z,14.13
2022-09-16T10:03:06.329Z,14.08
2022-09-16T10:05:33.975Z,14.14
2022-09-16T10:08:30.997Z,14.15
2022-09-16T10:11:01.666Z,14.21
2022-09-16T10:13:30.259Z,14.14
2022-09-16T10:16:14.519Z,14.62
2022-09-16T10:18:41.232Z,14.93
2022-09-16T10:21:09.966Z,14.85
2022-09-16T10:23:39.142Z,14.69
2022-09-16T10:26:06.005Z,15.25
2022-09-16T10:28:33.170Z,15.63
2022-09-16T10:31:00.996Z,15.55
2022-09-16T10:33:34.611Z,14.82
2022-09-16T10:36:03.266Z,14.92
2022-09-16T10:38:39.780Z,14.57
2022-09-16T10:41:14.606Z,14.88
2022-09-16T10:43:48.110Z,15.01
2022-09-16T10:46:16.219Z,14.58
2022-09-16T10:48:43.629Z,13.99
2022-09-16T10:51:23.151Z,13.52
2022-09-16T10:53:57.291Z,13.03
2022-09-16T10:56:29.376Z,13.10
2022-09-16T10:59:09.702Z,13.55
2022-09-16T11:02:04.457Z,13.74
2022-09-16T11:05:08.362Z,14.08
2022-09-16T11:07:59.778Z,14.34
2022-09-16T11:10:49.671Z,14.37
2022-09-16T11:13:21.137Z,14.48
2022-09-16T11:16:09.500Z,14.45
2022-09-16T11:18:36.074Z,14.41
2022-09-16T11:21:08.840Z,14.50
2022-09-16T11:24:03.079Z,14.65
2022-09-16T11:27:00.679Z,14.90
2022-09-16T11:29:33.239Z,14.88
2022-09-16T11:32:02.831Z,14.65
2022-09-16T11:34:57.936Z,14.09
2022-09-16T11:37:33.806Z,12.96
2022-09-16T11:40:15.771Z,12.44
2022-09-16T11:42:47.473Z,12.13
2022-09-16T11:45:35.064Z,12.04
2022-09-16T11:48:18.548Z,12.12
2022-09-16T11:51:12.592Z,12.33
2022-09-16T11:54:02.277Z,12.61
2022-09-16T11:56:42.027Z,12.82
2022-09-16T11:59:26.803Z,13.03
2022-09-16T12:02:21.521Z,13.03
2022-09-16T12:04:53.764Z,12.92
2022-09-16T12:07:32.320Z,12.81
2022-09-16T12:10:05.371Z,12.84
2022-09-16T12:12:39.423Z,12.71
2022-09-16T12:15:16.739Z,12.47
2022-09-16T12:17:58.395Z,12.49
2022-09-16T12:20:31.564Z,12.66
2022-09-16T12:23:04.717Z,12.66
2022-09-16T12:25:38.345Z,12.80
2022-09-16T12:28:13.417Z,12.95
2022-09-16T12:30:46.086Z,12.95
2022-09-16T12:33:26.295Z,13.00
2022-09-16T12:36:00.030Z,13.10
2022-09-16T12:38:26.843Z,13.05
2022-09-16T12:41:12.261Z,13.12
2022-09-16T12:43:44.886Z,13.05
2022-09-16T12:46:33.966Z,13.31
2022-09-16T12:49:14.560Z,13.45
2022-09-16T12:51:52.599Z,13.71
2022-09-16T12:54:51.280Z,13.81
2022-09-16T12:57:53.148Z,14.01
2022-09-16T13:01:04.884Z,14.25
2022-09-16T13:03:32.842Z,14.79
2022-09-16T13:06:04.176Z,14.98
2022-09-16T13:08:31.888Z,15.37
2022-09-16T13:11:38.987Z,15.01
2022-09-16T13:13:57.155Z,14.94
2022-09-16T13:16:35.476Z,15.26
2022-09-16T13:19:55.893Z,15.32
2022-09-16T13:22:32.350Z,15.37
2022-09-16T13:25:09.399Z,15.61
2022-09-16T13:27:38.345Z,15.29
2022-09-16T13:30:16.875Z,15.63
2022-09-16T13:32:52.625Z,15.99
2022-09-16T13:35:24.544Z,15.68
2022-09-16T13:37:54.447Z,16.21
2022-09-16T13:40:25.062Z,16.13
2022-09-16T13:43:07.935Z,15.91
2022-09-16T13:45:39.997Z,16.09
2022-09-16T13:48:13.625Z,15.91
2022-09-16T13:51:00.600Z,15.55
2022-09-16T13:53:32.455Z,15.42
2022-09-16T13:56:10.790Z,15.06
2022-09-16T13:58:47.067Z,15.55
2022-09-16T14:01:28.029Z,15.83
2022-09-16T14:04:08.854Z,15.39
2022-09-16T14:06:51.600Z,15.32
2022-09-16T14:09:26.974Z,14.60
2022-09-16T14:12:18.900Z,13.71
2022-09-16T14:14:47.861Z,13.33
2022-09-16T14:17:18.650Z,13.09
2022-09-16T14:19:52.446Z,13.01
2022-09-16T14:22:26.731Z,12.95
2022-09-16T14:25:05.780Z,12.75
2022-09-16T14:27:40.223Z,12.66
2022-09-16T14:30:14.871Z,12.43
2022-09-16T14:32:41.497Z,12.15
2022-09-16T14:35:21.003Z,12.34
2022-09-16T14:37:50.500Z,12.63
2022-09-16T14:40:19.989Z,12.67
2022-09-16T14:43:04.533Z,12.87
2022-09-16T14:45:32.131Z,12.64
2022-09-16T14:48:01.594Z,12.17
2022-09-16T14:50:36.131Z,11.78
2022-09-16T14:53:06.069Z,11.76
2022-09-16T14:55:36.239Z,11.64
2022-09-16T14:58:05.685Z,11.54
2022-09-16T15:00:54.326Z,11.43
2022-09-16T15:03:35.089Z,11.35
2022-09-16T15:06:06.894Z,11.53
2022-09-16T15:09:15.502Z,11.73
2022-09-16T15:11:52.404Z,11.93
2022-09-16T15:14:19.337Z,12.15
2022-09-16T15:16:49.558Z,12.22
2022-09-16T15:19:21.242Z,12.39
2022-09-16T15:21:47.989Z,12.41
2022-09-16T15:24:28.392Z,12.50
2022-09-16T15:26:55.424Z,12.63
2022-09-16T15:29:24.930Z,12.74
2022-09-16T15:31:51.546Z,12.87
2022-09-16T15:34:21.038Z,12.91
2022-09-16T15:36:50.762Z,12.91
2022-09-16T15:39:31.031Z,13.06
2022-09-16T15:42:25.469Z,13.06
2022-09-16T15:44:55.163Z,13.19
2022-09-16T15:47:25.388Z,13.23
2022-09-16T15:50:03.958Z,13.26
2022-09-16T15:52:48.939Z,13.15
2022-09-16T15:55:28.420Z,13.17
2022-09-16T15:58:06.665Z,13.16
2022-09-16T16:01:10.111Z,13.14
2022-09-16T16:03:57.638Z,13.23
2022-09-16T16:06:51.448Z,13.08
2022-09-16T16:09:27.436Z,13.13
2022-09-16T16:11:57.588Z,13.01
2022-09-16T16:14:25.231Z,12.87
2022-09-16T16:17:11.750Z,12.83
2022-09-16T16:19:39.182Z,12.87
2022-09-16T16:22:07.050Z,12.84
2022-09-16T16:24:33.709Z,12.89
2022-09-16T16:27:00.329Z,12.85
2022-09-16T16:29:27.015Z,12.86
2022-09-16T16:32:07.644Z,12.82
2022-09-16T16:34:36.453Z,12.85
2022-09-16T16:37:03.998Z,12.90
2022-09-16T16:39:30.700Z,12.73
2022-09-16T16:41:57.599Z,12.78
2022-09-16T16:44:24.889Z,12.78
2022-09-16T16:46:52.662Z,12.79
2022-09-16T16:49:19.621Z,12.77
2022-09-16T16:51:48.589Z,12.82
2022-09-16T16:54:15.240Z,12.79
2022-09-16T16:56:42.313Z,12.83
2022-09-16T16:59:09.074Z,12.74
2022-09-16T17:01:36.081Z,12.61
2022-09-16T17:04:03.072Z,12.59
2022-09-16T17:06:35.018Z,12.53
2022-09-16T17:09:01.905Z,12.45
2022-09-16T17:11:28.735Z,12.39
2022-09-16T17:14:04.920Z,12.34
2022-09-16T17:16:31.853Z,12.32
2022-09-16T17:19:00.150Z,12.35
2022-09-16T17:21:34.423Z,12.28
2022-09-16T17:24:01.260Z,12.22
2022-09-16T17:26:28.289Z,12.17
2022-09-16T17:28:57.836Z,12.12
2022-09-16T17:31:29.964Z,12.07
2022-09-16T17:33:58.763Z,12.02
2022-09-16T17:36:26.308Z,12.05
2022-09-16T17:39:20.899Z,12.03
2022-09-16T17:41:51.535Z,11.98
2022-09-16T17:44:19.049Z,11.98
2022-09-16T17:46:46.882Z,11.95
2022-09-16T17:49:17.029Z,11.96
2022-09-16T17:51:43.973Z,11.98
2022-09-16T17:54:11.166Z,11.95
2022-09-16T17:56:37.806Z,11.90
2022-09-16T17:59:04.515Z,11.93
2022-09-16T18:01:31.749Z,11.89
2022-09-16T18:04:02.930Z,11.90
2022-09-16T18:06:32.161Z,11.86
2022-09-16T18:09:04.015Z,11.85
2022-09-16T18:11:31.038Z,11.88
2022-09-16T18:13:59.737Z,11.81
2022-09-16T18:16:27.694Z,11.80
2022-09-16T18:19:04.111Z,11.81
2022-09-16T18:21:31.513Z,11.80
2022-09-16T18:24:00.580Z,11.68
2022-09-16T18:26:35.083Z,11.67
2022-09-16T18:29:11.168Z,11.62
2022-09-16T18:31:43.634Z,11.67
2022-09-16T18:34:10.966Z,11.63
2022-09-16T18:36:39.120Z,11.56
2022-09-16T18:39:07.523Z,11.49
2022-09-16T18:41:36.449Z,11.38
2022-09-16T18:44:07.489Z,11.37
2022-09-16T18:46:36.416Z,11.29
2022-09-16T18:49:06.452Z,11.22
2022-09-16T18:51:44.339Z,11.01
2022-09-16T18:54:18.356Z,10.93
2022-09-16T18:56:45.503Z,10.75
2022-09-16T18:59:23.395Z,10.65
2022-09-16T19:01:52.073Z,10.53
2022-09-16T19:04:21.303Z,10.45
2022-09-16T19:06:51.873Z,10.33
2022-09-16T19:09:20.788Z,10.26
2022-09-16T19:11:47.778Z,10.27
2022-09-16T19:14:15.095Z,10.27
2022-09-16T19:16:43.347Z,10.24
2022-09-16T19:19:11.207Z,10.20
2022-09-16T19:21:38.281Z,10.15
2022-09-16T19:24:07.737Z,10.11
2022-09-16T19:26:43.728Z,10.06
2022-09-16T19:29:10.932Z,10.12
2022-09-16T19:31:40.729Z,10.09
2022-09-16T19:34:10.057Z,10.04
2022-09-16T19:36:37.596Z,10.12
2022-09-16T19:39:05.627Z,10.05
2022-09-16T19:41:34.268Z,10.02
2022-09-16T19:44:03.640Z,9.99
2022-09-16T19:46:33.995Z,9.98
2022-09-16T19:49:00.756Z,9.95
2022-09-16T19:51:29.092Z,9.99
2022-09-16T19:54:01.505Z,10.01
2022-09-16T19:56:30.317Z,9.93
2022-09-16T19:59:01.368Z,10.03
2022-09-16T20:01:33.411Z,10.00
2022-09-16T20:04:01.307Z,9.96
2022-09-16T20:06:31.756Z,9.94
2022-09-16T20:09:03.253Z,9.90
2022-09-16T20:11:32.545Z,9.87
2022-09-16T20:14:01.203Z,9.84
2022-09-16T20:16:34.386Z,9.86
2022-09-16T20:19:01.987Z,9.82
2022-09-16T20:21:29.827Z,9.78
2022-09-16T20:23:56.776Z,9.77
2022-09-16T20:26:23.923Z,9.75
2022-09-16T20:28:52.120Z,9.74
2022-09-16T20:31:25.419Z,9.74
2022-09-16T20:33:54.108Z,9.74
2022-09-16T20:36:31.250Z,9.74
2022-09-16T20:39:09.054Z,9.69
2022-09-16T20:41:39.161Z,9.73
2022-09-16T20:44:06.636Z,9.62
2022-09-16T20:46:39.589Z,9.69
2022-09-16T20:49:25.332Z,9.65
2022-09-16T20:51:52.091Z,9.72
2022-09-16T20:54:18.842Z,9.74
2022-09-16T20:56:56.603Z,9.66
2022-09-16T20:59:23.428Z,9.69
2022-09-16T21:01:50.194Z,9.70
2022-09-16T21:04:23.021Z,9.68
2022-09-16T21:06:49.669Z,9.67
2022-09-16T21:09:16.462Z,9.71
2022-09-16T21:11:45.923Z,9.76
2022-09-16T21:14:15.204Z,9.76
2022-09-16T21:16:43.097Z,9.81
2022-09-16T21:19:10.802Z,9.74
2022-09-16T21:21:40.502Z,9.84
2022-09-16T21:24:15.096Z,9.83
2022-09-16T21:26:41.929Z,9.82
2022-09-16T21:29:10.909Z,9.80
2022-09-16T21:31:42.063Z,9.81
2022-09-16T21:34:14.280Z,9.85
2022-09-16T21:36:41.461Z,9.77
2022-09-16T21:39:08.534Z,9.79
2022-09-16T21:41:35.340Z,9.74
2022-09-16T21:44:03.790Z,9.77
2022-09-16T21:46:43.116Z,9.75
2022-09-16T21:49:19.214Z,9.74
2022-09-16T21:51:45.864Z,9.76
2022-09-16T21:54:19.075Z,9.80
2022-09-16T21:56:46.685Z,9.79
2022-09-16T21:59:13.292Z,9.82
2022-09-16T22:01:39.891Z,9.84
2022-09-16T22:04:11.356Z,9.85
2022-09-16T22:06:37.931Z,9.86
2022-09-16T22:09:07.773Z,9.87
2022-09-16T22:11:35.950Z,9.98
2022-09-16T22:14:07.307Z,9.93
2022-09-16T22:16:37.189Z,10.05
2022-09-16T22:19:12.891Z,10.03
2022-09-16T22:21:44.684Z,9.99
2022-09-16T22:24:11.628Z,10.00
2022-09-16T22:26:38.940Z,10.03
2022-09-16T22:29:09.591Z,10.02
2022-09-16T22:31:37.653Z,9.98
2022-09-16T22:34:04.659Z,9.96
2022-09-16T22:36:35.724Z,9.96
2022-09-16T22:39:10.766Z,9.97
2022-09-16T22:41:37.392Z,10.02
2022-09-16T22:44:11.776Z,10.09
2022-09-16T22:46:43.915Z,10.06
2022-09-16T22:49:11.042Z,10.14
2022-09-16T22:51:38.300Z,10.11
2022-09-16T22:54:05.290Z,10.15
2022-09-16T22:56:33.465Z,10.13
2022-09-16T22:59:02.161Z,10.15
2022-09-16T23:01:31.977Z,10.18
2022-09-16T23:04:00.799Z,10.12
2022-09-16T23:06:29.809Z,10.15
2022-09-16T23:08:56.821Z,10.19
2022-09-16T23:11:29.227Z,10.23
2022-09-16T23:13:56.385Z,10.25
2022-09-16T23:16:26.962Z,10.26
2022-09-16T23:19:00.081Z,10.34
2022-09-16T23:21:26.772Z,10.32
2022-09-16T23:24:00.367Z,10.38
2022-09-16T23:26:30.446Z,10.36
2022-09-16T23:28:58.965Z,10.36
2022-09-16T23:31:28.000Z,10.39
2022-09-16T23:33:55.310Z,10.40
2022-09-16T23:36:25.819Z,10.39
2022-09-16T23:38:53.719Z,10.40
2022-09-16T23:41:23.493Z,10.34
2022-09-16T23:43:50.458Z,10.14
2022-09-16T23:46:19.328Z,10.09
2022-09-16T23:48:46.719Z,10.09
2022-09-16T23:51:14.050Z,10.11
2022-09-16T23:53:42.492Z,10.09
2022-09-16T23:56:11.372Z,10.07
2022-09-16T23:58:38.270Z,10.12
